sensor_id;sensor_type;location;lat;lon;timestamp;temperature;humidity
69895;DHT22;57172;52.034;5.090;2023-02-28T00:00:36;3.00;62.30
69895;DHT22;57172;52.034;5.090;2023-02-28T00:03:03;2.90;62.50
69895;DHT22;57172;52.034;5.090;2023-02-28T00:05:30;2.90;62.70
69895;DHT22;57172;52.034;5.090;2023-02-28T00:07:57;2.90;62.70
69895;DHT22;57172;52.034;5.090;2023-02-28T00:10:27;2.90;62.70
69895;DHT22;57172;52.034;5.090;2023-02-28T00:12:58;2.90;62.80
69895;DHT22;57172;52.034;5.090;2023-02-28T00:15:25;2.90;62.90
69895;DHT22;57172;52.034;5.090;2023-02-28T00:17:52;2.90;63.20
69895;DHT22;57172;52.034;5.090;2023-02-28T00:20:19;2.90;63.40
69895;DHT22;57172;52.034;5.090;2023-02-28T00:22:49;2.90;63.60
69895;DHT22;57172;52.034;5.090;2023-02-28T00:25:19;2.90;63.80
69895;DHT22;57172;52.034;5.090;2023-02-28T00:27:46;3.00;63.90
69895;DHT22;57172;52.034;5.090;2023-02-28T00:30:19;3.00;64.00
69895;DHT22;57172;52.034;5.090;2023-02-28T00:32:46;3.10;64.20
69895;DHT22;57172;52.034;5.090;2023-02-28T00:35:13;3.10;64.20
69895;DHT22;57172;52.034;5.090;2023-02-28T00:37:41;3.20;64.40
69895;DHT22;57172;52.034;5.090;2023-02-28T00:40:08;3.30;64.50
69895;DHT22;57172;52.034;5.090;2023-02-28T00:42:36;3.40;64.70
69895;DHT22;57172;52.034;5.090;2023-02-28T00:45:04;3.40;64.80
69895;DHT22;57172;52.034;5.090;2023-02-28T00:47:31;3.50;64.90
69895;DHT22;57172;52.034;5.090;2023-02-28T00:49:59;3.50;64.90
69895;DHT22;57172;52.034;5.090;2023-02-28T00:52:27;3.60;64.90
69895;DHT22;57172;52.034;5.090;2023-02-28T00:54:54;3.60;65.00
69895;DHT22;57172;52.034;5.090;2023-02-28T00:57:21;3.60;65.00
69895;DHT22;57172;52.034;5.090;2023-02-28T00:59:48;3.60;65.10
69895;DHT22;57172;52.034;5.090;2023-02-28T01:02:15;3.70;65.10
69895;DHT22;57172;52.034;5.090;2023-02-28T01:04:42;3.70;65.00
69895;DHT22;57172;52.034;5.090;2023-02-28T01:07:09;3.70;65.00
69895;DHT22;57172;52.034;5.090;2023-02-28T01:09:36;3.80;65.00
69895;DHT22;57172;52.034;5.090;2023-02-28T01:12:04;3.80;65.00
69895;DHT22;57172;52.034;5.090;2023-02-28T01:14:32;3.90;65.00
69895;DHT22;57172;52.034;5.090;2023-02-28T01:16:59;3.90;65.00
69895;DHT22;57172;52.034;5.090;2023-02-28T01:19:26;3.90;65.10
69895;DHT22;57172;52.034;5.090;2023-02-28T01:21:53;3.90;65.00
69895;DHT22;57172;52.034;5.090;2023-02-28T01:24:20;4.00;65.10
69895;DHT22;57172;52.034;5.090;2023-02-28T01:26:47;4.00;65.00
69895;DHT22;57172;52.034;5.090;2023-02-28T01:29:15;4.00;65.00
69895;DHT22;57172;52.034;5.090;2023-02-28T01:31:41;4.00;65.10
69895;DHT22;57172;52.034;5.090;2023-02-28T01:34:08;4.00;65.10
69895;DHT22;57172;52.034;5.090;2023-02-28T01:36:35;4.00;65.20
69895;DHT22;57172;52.034;5.090;2023-02-28T01:39:02;4.00;65.20
69895;DHT22;57172;52.034;5.090;2023-02-28T01:41:32;4.00;65.20
69895;DHT22;57172;52.034;5.090;2023-02-28T01:44:55;4.10;65.20
69895;DHT22;57172;52.034;5.090;2023-02-28T01:46:55;4.10;65.20
69895;DHT22;57172;52.034;5.090;2023-02-28T01:49:22;4.10;65.10
69895;DHT22;57172;52.034;5.090;2023-02-28T01:51:50;4.10;65.10
69895;DHT22;57172;52.034;5.090;2023-02-28T01:54:24;4.20;65.10
69895;DHT22;57172;52.034;5.090;2023-02-28T01:57:05;4.20;65.20
69895;DHT22;57172;52.034;5.090;2023-02-28T01:59:37;4.20;65.30
69895;DHT22;57172;52.034;5.090;2023-02-28T02:02:07;4.20;65.20
69895;DHT22;57172;52.034;5.090;2023-02-28T02:04:38;4.20;65.20
69895;DHT22;57172;52.034;5.090;2023-02-28T02:07:08;4.20;65.30
69895;DHT22;57172;52.034;5.090;2023-02-28T02:09:35;4.20;65.20
69895;DHT22;57172;52.034;5.090;2023-02-28T02:12:12;4.20;65.30
69895;DHT22;57172;52.034;5.090;2023-02-28T02:15:00;4.20;65.30
69895;DHT22;57172;52.034;5.090;2023-02-28T02:17:56;4.30;65.30
69895;DHT22;57172;52.034;5.090;2023-02-28T02:23:31;4.30;65.00
69895;DHT22;57172;52.034;5.090;2023-02-28T02:32:19;4.30;65.00
69895;DHT22;57172;52.034;5.090;2023-02-28T02:40:55;4.40;64.80
69895;DHT22;57172;52.034;5.090;2023-02-28T02:43:29;4.30;64.90
69895;DHT22;57172;52.034;5.090;2023-02-28T02:46:10;4.30;64.90
69895;DHT22;57172;52.034;5.090;2023-02-28T02:48:40;4.30;65.00
69895;DHT22;57172;52.034;5.090;2023-02-28T02:51:16;4.30;65.10
69895;DHT22;57172;52.034;5.090;2023-02-28T02:54:16;4.30;65.10
69895;DHT22;57172;52.034;5.090;2023-02-28T02:56:47;4.30;65.10
69895;DHT22;57172;52.034;5.090;2023-02-28T02:59:19;4.40;65.10
69895;DHT22;57172;52.034;5.090;2023-02-28T03:01:51;4.40;65.20
69895;DHT22;57172;52.034;5.090;2023-02-28T03:04:22;4.40;65.20
69895;DHT22;57172;52.034;5.090;2023-02-28T03:06:51;4.40;65.10
69895;DHT22;57172;52.034;5.090;2023-02-28T03:09:25;4.40;65.10
69895;DHT22;57172;52.034;5.090;2023-02-28T03:11:54;4.40;65.10
69895;DHT22;57172;52.034;5.090;2023-02-28T03:20:32;4.40;65.40
69895;DHT22;57172;52.034;5.090;2023-02-28T03:33:18;4.40;65.80
69895;DHT22;57172;52.034;5.090;2023-02-28T03:35:59;4.40;65.80
69895;DHT22;57172;52.034;5.090;2023-02-28T03:38:38;4.40;65.80
69895;DHT22;57172;52.034;5.090;2023-02-28T03:41:20;4.40;65.90
69895;DHT22;57172;52.034;5.090;2023-02-28T03:44:10;4.40;66.00
69895;DHT22;57172;52.034;5.090;2023-02-28T03:46:51;4.40;66.00
69895;DHT22;57172;52.034;5.090;2023-02-28T03:49:23;4.40;66.00
69895;DHT22;57172;52.034;5.090;2023-02-28T03:51:51;4.40;66.00
69895;DHT22;57172;52.034;5.090;2023-02-28T03:54:25;4.40;66.00
69895;DHT22;57172;52.034;5.090;2023-02-28T03:57:02;4.40;66.00
69895;DHT22;57172;52.034;5.090;2023-02-28T03:59:44;4.40;66.10
69895;DHT22;57172;52.034;5.090;2023-02-28T04:02:12;4.40;66.30
69895;DHT22;57172;52.034;5.090;2023-02-28T04:04:39;4.40;66.30
69895;DHT22;57172;52.034;5.090;2023-02-28T04:07:12;4.40;66.30
69895;DHT22;57172;52.034;5.090;2023-02-28T04:09:39;4.50;66.30
69895;DHT22;57172;52.034;5.090;2023-02-28T04:12:06;4.50;66.30
69895;DHT22;57172;52.034;5.090;2023-02-28T04:14:33;4.50;66.30
69895;DHT22;57172;52.034;5.090;2023-02-28T04:17:00;4.50;66.30
69895;DHT22;57172;52.034;5.090;2023-02-28T04:19:27;4.40;66.40
69895;DHT22;57172;52.034;5.090;2023-02-28T04:21:54;4.40;66.60
69895;DHT22;57172;52.034;5.090;2023-02-28T04:24:26;4.30;66.70
69895;DHT22;57172;52.034;5.090;2023-02-28T04:26:56;4.30;66.80
69895;DHT22;57172;52.034;5.090;2023-02-28T04:29:28;4.30;66.80
69895;DHT22;57172;52.034;5.090;2023-02-28T04:31:56;4.30;66.80
69895;DHT22;57172;52.034;5.090;2023-02-28T04:34:27;4.30;66.90
69895;DHT22;57172;52.034;5.090;2023-02-28T04:36:55;4.30;66.80
69895;DHT22;57172;52.034;5.090;2023-02-28T04:39:38;4.30;66.90
69895;DHT22;57172;52.034;5.090;2023-02-28T04:42:05;4.30;66.90
69895;DHT22;57172;52.034;5.090;2023-02-28T04:44:32;4.30;66.90
69895;DHT22;57172;52.034;5.090;2023-02-28T04:46:59;4.30;67.00
69895;DHT22;57172;52.034;5.090;2023-02-28T04:49:26;4.30;67.10
69895;DHT22;57172;52.034;5.090;2023-02-28T04:51:53;4.30;67.00
69895;DHT22;57172;52.034;5.090;2023-02-28T04:54:20;4.30;66.90
69895;DHT22;57172;52.034;5.090;2023-02-28T04:56:47;4.30;66.80
69895;DHT22;57172;52.034;5.090;2023-02-28T04:59:16;4.30;66.70
69895;DHT22;57172;52.034;5.090;2023-02-28T05:01:46;4.20;66.30
69895;DHT22;57172;52.034;5.090;2023-02-28T05:04:14;4.20;65.90
69895;DHT22;57172;52.034;5.090;2023-02-28T05:06:42;4.10;65.60
69895;DHT22;57172;52.034;5.090;2023-02-28T05:09:09;4.20;65.40
69895;DHT22;57172;52.034;5.090;2023-02-28T05:11:39;4.10;64.50
69895;DHT22;57172;52.034;5.090;2023-02-28T05:14:12;4.10;64.00
69895;DHT22;57172;52.034;5.090;2023-02-28T05:16:40;4.10;63.60
69895;DHT22;57172;52.034;5.090;2023-02-28T05:19:07;4.10;63.20
69895;DHT22;57172;52.034;5.090;2023-02-28T05:21:36;4.00;62.90
69895;DHT22;57172;52.034;5.090;2023-02-28T05:24:06;4.00;62.70
69895;DHT22;57172;52.034;5.090;2023-02-28T05:26:39;4.00;62.60
69895;DHT22;57172;52.034;5.090;2023-02-28T05:29:06;4.00;62.60
69895;DHT22;57172;52.034;5.090;2023-02-28T05:31:34;4.00;62.40
69895;DHT22;57172;52.034;5.090;2023-02-28T05:34:01;4.00;62.10
69895;DHT22;57172;52.034;5.090;2023-02-28T05:36:28;4.00;62.20
69895;DHT22;57172;52.034;5.090;2023-02-28T05:38:54;4.00;62.40
69895;DHT22;57172;52.034;5.090;2023-02-28T05:41:22;4.00;62.40
69895;DHT22;57172;52.034;5.090;2023-02-28T05:43:49;3.90;62.30
69895;DHT22;57172;52.034;5.090;2023-02-28T05:46:16;3.80;62.70
69895;DHT22;57172;52.034;5.090;2023-02-28T05:48:46;3.70;63.00
69895;DHT22;57172;52.034;5.090;2023-02-28T05:51:14;3.70;63.40
69895;DHT22;57172;52.034;5.090;2023-02-28T05:53:40;3.60;63.70
69895;DHT22;57172;52.034;5.090;2023-02-28T05:56:07;3.60;63.90
69895;DHT22;57172;52.034;5.090;2023-02-28T05:58:34;3.60;64.30
69895;DHT22;57172;52.034;5.090;2023-02-28T06:04:01;3.50;64.70
69895;DHT22;57172;52.034;5.090;2023-02-28T06:06:29;3.50;65.00
69895;DHT22;57172;52.034;5.090;2023-02-28T06:08:56;3.50;65.40
69895;DHT22;57172;52.034;5.090;2023-02-28T06:11:23;3.50;65.50
69895;DHT22;57172;52.034;5.090;2023-02-28T06:13:55;3.40;65.60
69895;DHT22;57172;52.034;5.090;2023-02-28T06:16:23;3.40;65.80
69895;DHT22;57172;52.034;5.090;2023-02-28T06:18:51;3.40;66.00
69895;DHT22;57172;52.034;5.090;2023-02-28T06:21:19;3.40;66.20
69895;DHT22;57172;52.034;5.090;2023-02-28T06:23:45;3.40;66.30
69895;DHT22;57172;52.034;5.090;2023-02-28T06:26:12;3.40;66.40
69895;DHT22;57172;52.034;5.090;2023-02-28T06:28:39;3.40;66.60
69895;DHT22;57172;52.034;5.090;2023-02-28T06:31:11;3.30;66.70
69895;DHT22;57172;52.034;5.090;2023-02-28T06:33:40;3.30;66.90
69895;DHT22;57172;52.034;5.090;2023-02-28T06:36:08;3.30;67.20
69895;DHT22;57172;52.034;5.090;2023-02-28T06:38:35;3.30;67.20
69895;DHT22;57172;52.034;5.090;2023-02-28T06:41:03;3.30;67.20
69895;DHT22;57172;52.034;5.090;2023-02-28T06:43:37;3.30;67.30
69895;DHT22;57172;52.034;5.090;2023-02-28T06:46:06;3.20;67.30
69895;DHT22;57172;52.034;5.090;2023-02-28T06:48:33;3.20;67.60
69895;DHT22;57172;52.034;5.090;2023-02-28T06:51:03;3.20;67.90
69895;DHT22;57172;52.034;5.090;2023-02-28T06:53:30;3.20;67.80
69895;DHT22;57172;52.034;5.090;2023-02-28T06:55:57;3.20;68.00
69895;DHT22;57172;52.034;5.090;2023-02-28T06:58:24;3.20;68.00
69895;DHT22;57172;52.034;5.090;2023-02-28T07:00:52;3.20;68.30
69895;DHT22;57172;52.034;5.090;2023-02-28T07:03:19;3.20;68.60
69895;DHT22;57172;52.034;5.090;2023-02-28T07:05:46;3.20;68.80
69895;DHT22;57172;52.034;5.090;2023-02-28T07:08:13;3.20;69.00
69895;DHT22;57172;52.034;5.090;2023-02-28T07:10:40;3.30;69.00
69895;DHT22;57172;52.034;5.090;2023-02-28T07:13:08;3.30;69.10
69895;DHT22;57172;52.034;5.090;2023-02-28T07:15:36;3.30;69.20
69895;DHT22;57172;52.034;5.090;2023-02-28T07:18:07;3.40;69.50
69895;DHT22;57172;52.034;5.090;2023-02-28T07:20:35;3.40;69.50
69895;DHT22;57172;52.034;5.090;2023-02-28T07:23:02;3.50;69.40
69895;DHT22;57172;52.034;5.090;2023-02-28T07:25:29;3.50;69.30
69895;DHT22;57172;52.034;5.090;2023-02-28T07:27:56;3.50;69.40
69895;DHT22;57172;52.034;5.090;2023-02-28T07:30:23;3.50;69.60
69895;DHT22;57172;52.034;5.090;2023-02-28T07:32:50;3.50;69.60
69895;DHT22;57172;52.034;5.090;2023-02-28T07:35:16;3.60;69.70
69895;DHT22;57172;52.034;5.090;2023-02-28T07:37:43;3.60;69.80
69895;DHT22;57172;52.034;5.090;2023-02-28T07:40:11;3.60;69.80
69895;DHT22;57172;52.034;5.090;2023-02-28T07:42:39;3.60;69.80
69895;DHT22;57172;52.034;5.090;2023-02-28T07:45:09;3.60;70.00
69895;DHT22;57172;52.034;5.090;2023-02-28T07:47:38;3.70;70.00
69895;DHT22;57172;52.034;5.090;2023-02-28T07:50:06;3.70;70.00
69895;DHT22;57172;52.034;5.090;2023-02-28T07:52:34;3.70;70.00
69895;DHT22;57172;52.034;5.090;2023-02-28T07:55:00;3.70;70.10
69895;DHT22;57172;52.034;5.090;2023-02-28T07:57:27;3.80;70.20
69895;DHT22;57172;52.034;5.090;2023-02-28T07:59:54;3.80;70.10
69895;DHT22;57172;52.034;5.090;2023-02-28T08:02:21;3.80;70.10
69895;DHT22;57172;52.034;5.090;2023-02-28T08:04:48;3.80;70.20
69895;DHT22;57172;52.034;5.090;2023-02-28T08:07:17;3.90;70.20
69895;DHT22;57172;52.034;5.090;2023-02-28T08:09:44;3.90;70.20
69895;DHT22;57172;52.034;5.090;2023-02-28T08:12:11;3.90;70.20
69895;DHT22;57172;52.034;5.090;2023-02-28T08:14:38;4.00;70.30
69895;DHT22;57172;52.034;5.090;2023-02-28T08:17:06;4.00;70.20
69895;DHT22;57172;52.034;5.090;2023-02-28T08:19:33;4.10;70.40
69895;DHT22;57172;52.034;5.090;2023-02-28T08:22:00;4.10;70.50
69895;DHT22;57172;52.034;5.090;2023-02-28T08:24:27;4.20;70.40
69895;DHT22;57172;52.034;5.090;2023-02-28T08:26:54;4.10;70.60
69895;DHT22;57172;52.034;5.090;2023-02-28T08:29:21;4.20;70.80
69895;DHT22;57172;52.034;5.090;2023-02-28T08:31:48;4.20;70.90
69895;DHT22;57172;52.034;5.090;2023-02-28T08:34:16;4.30;70.70
69895;DHT22;57172;52.034;5.090;2023-02-28T08:36:43;4.30;70.50
69895;DHT22;57172;52.034;5.090;2023-02-28T08:39:12;4.30;70.60
69895;DHT22;57172;52.034;5.090;2023-02-28T08:41:39;4.30;70.70
69895;DHT22;57172;52.034;5.090;2023-02-28T08:44:06;4.40;70.60
69895;DHT22;57172;52.034;5.090;2023-02-28T08:46:32;4.50;70.20
69895;DHT22;57172;52.034;5.090;2023-02-28T08:48:59;4.50;70.00
69895;DHT22;57172;52.034;5.090;2023-02-28T08:51:28;4.60;69.80
69895;DHT22;57172;52.034;5.090;2023-02-28T08:53:59;4.70;69.50
69895;DHT22;57172;52.034;5.090;2023-02-28T08:56:27;4.80;69.10
69895;DHT22;57172;52.034;5.090;2023-02-28T08:58:56;4.80;68.60
69895;DHT22;57172;52.034;5.090;2023-02-28T09:01:26;4.80;68.10
69895;DHT22;57172;52.034;5.090;2023-02-28T09:03:55;4.80;67.60
69895;DHT22;57172;52.034;5.090;2023-02-28T09:06:27;4.90;66.80
69895;DHT22;57172;52.034;5.090;2023-02-28T09:08:58;4.90;66.40
69895;DHT22;57172;52.034;5.090;2023-02-28T09:11:26;4.90;66.00
69895;DHT22;57172;52.034;5.090;2023-02-28T09:13:53;4.90;65.30
69895;DHT22;57172;52.034;5.090;2023-02-28T09:16:19;4.90;65.10
69895;DHT22;57172;52.034;5.090;2023-02-28T09:18:47;4.90;64.60
69895;DHT22;57172;52.034;5.090;2023-02-28T09:21:16;4.90;63.70
69895;DHT22;57172;52.034;5.090;2023-02-28T09:23:48;4.90;63.90
69895;DHT22;57172;52.034;5.090;2023-02-28T09:26:17;4.90;63.80
69895;DHT22;57172;52.034;5.090;2023-02-28T09:28:45;4.90;63.10
69895;DHT22;57172;52.034;5.090;2023-02-28T09:31:14;4.90;63.40
69895;DHT22;57172;52.034;5.090;2023-02-28T09:33:42;5.00;63.10
69895;DHT22;57172;52.034;5.090;2023-02-28T09:36:09;5.10;63.10
69895;DHT22;57172;52.034;5.090;2023-02-28T09:38:36;5.20;63.20
69895;DHT22;57172;52.034;5.090;2023-02-28T09:41:09;5.40;64.00
69895;DHT22;57172;52.034;5.090;2023-02-28T09:43:39;5.90;66.00
69895;DHT22;57172;52.034;5.090;2023-02-28T09:48:52;7.40;67.70
69895;DHT22;57172;52.034;5.090;2023-02-28T09:53:53;8.60;60.90
69895;DHT22;57172;52.034;5.090;2023-02-28T09:56:39;8.90;58.50
69895;DHT22;57172;52.034;5.090;2023-02-28T09:59:17;9.00;55.50
69895;DHT22;57172;52.034;5.090;2023-02-28T10:09:53;9.00;49.30
69895;DHT22;57172;52.034;5.090;2023-02-28T10:12:21;9.20;48.20
69895;DHT22;57172;52.034;5.090;2023-02-28T10:14:51;9.30;47.30
69895;DHT22;57172;52.034;5.090;2023-02-28T10:17:22;9.40;47.30
69895;DHT22;57172;52.034;5.090;2023-02-28T10:19:59;9.50;47.60
69895;DHT22;57172;52.034;5.090;2023-02-28T10:22:42;9.80;47.80
69895;DHT22;57172;52.034;5.090;2023-02-28T10:25:26;10.40;46.30
69895;DHT22;57172;52.034;5.090;2023-02-28T10:28:10;10.90;45.30
69895;DHT22;57172;52.034;5.090;2023-02-28T10:30:44;11.10;43.70
69895;DHT22;57172;52.034;5.090;2023-02-28T10:35:46;11.60;44.20
69895;DHT22;57172;52.034;5.090;2023-02-28T10:38:21;12.00;43.60
69895;DHT22;57172;52.034;5.090;2023-02-28T10:40:48;12.10;42.50
69895;DHT22;57172;52.034;5.090;2023-02-28T10:48:33;15.50;43.40
69895;DHT22;57172;52.034;5.090;2023-02-28T10:51:01;16.70;39.60
69895;DHT22;57172;52.034;5.090;2023-02-28T10:53:33;17.10;37.50
69895;DHT22;57172;52.034;5.090;2023-02-28T10:56:22;17.50;35.70
69895;DHT22;57172;52.034;5.090;2023-02-28T10:59:00;18.00;35.20
69895;DHT22;57172;52.034;5.090;2023-02-28T11:01:43;18.40;32.80
69895;DHT22;57172;52.034;5.090;2023-02-28T11:07:20;19.00;31.10
69895;DHT22;57172;52.034;5.090;2023-02-28T11:09:54;19.00;31.20
69895;DHT22;57172;52.034;5.090;2023-02-28T11:12:36;19.40;30.70
69895;DHT22;57172;52.034;5.090;2023-02-28T11:20:28;20.20;29.10
69895;DHT22;57172;52.034;5.090;2023-02-28T11:22:57;20.60;29.10
69895;DHT22;57172;52.034;5.090;2023-02-28T11:25:37;21.00;28.90
69895;DHT22;57172;52.034;5.090;2023-02-28T11:28:23;21.40;27.90
69895;DHT22;57172;52.034;5.090;2023-02-28T11:36:27;21.80;26.80
69895;DHT22;57172;52.034;5.090;2023-02-28T11:38:59;22.00;26.60
69895;DHT22;57172;52.034;5.090;2023-02-28T11:44:54;21.90;26.00
69895;DHT22;57172;52.034;5.090;2023-02-28T11:47:55;22.10;26.50
69895;DHT22;57172;52.034;5.090;2023-02-28T11:56:25;23.50;26.00
69895;DHT22;57172;52.034;5.090;2023-02-28T12:02:06;24.00;24.30
69895;DHT22;57172;52.034;5.090;2023-02-28T12:10:26;24.00;23.90
69895;DHT22;57172;52.034;5.090;2023-02-28T12:21:21;24.30;23.80
69895;DHT22;57172;52.034;5.090;2023-02-28T12:24:29;24.30;23.60
69895;DHT22;57172;52.034;5.090;2023-02-28T12:27:05;24.40;23.90
69895;DHT22;57172;52.034;5.090;2023-02-28T12:29:48;24.50;23.50
69895;DHT22;57172;52.034;5.090;2023-02-28T12:32:21;24.40;23.30
69895;DHT22;57172;52.034;5.090;2023-02-28T12:37:46;24.00;23.10
69895;DHT22;57172;52.034;5.090;2023-02-28T12:40:21;23.60;22.70
69895;DHT22;57172;52.034;5.090;2023-02-28T12:43:03;23.00;22.60
69895;DHT22;57172;52.034;5.090;2023-02-28T12:46:32;22.70;23.70
69895;DHT22;57172;52.034;5.090;2023-02-28T12:48:56;22.90;24.10
69895;DHT22;57172;52.034;5.090;2023-02-28T12:51:25;23.20;24.20
69895;DHT22;57172;52.034;5.090;2023-02-28T13:08:09;24.00;22.80
69895;DHT22;57172;52.034;5.090;2023-02-28T13:13:18;23.60;23.00
69895;DHT22;57172;52.034;5.090;2023-02-28T13:18:38;23.50;22.40
69895;DHT22;57172;52.034;5.090;2023-02-28T13:21:23;23.30;22.50
69895;DHT22;57172;52.034;5.090;2023-02-28T13:37:34;22.00;22.80
69895;DHT22;57172;52.034;5.090;2023-02-28T13:47:44;23.00;23.40
69895;DHT22;57172;52.034;5.090;2023-02-28T13:55:48;23.40;22.90
69895;DHT22;57172;52.034;5.090;2023-02-28T14:07:01;22.80;22.20
69895;DHT22;57172;52.034;5.090;2023-02-28T14:09:39;22.50;22.60
69895;DHT22;57172;52.034;5.090;2023-02-28T14:18:06;21.20;22.40
69895;DHT22;57172;52.034;5.090;2023-02-28T14:20:40;20.80;22.80
69895;DHT22;57172;52.034;5.090;2023-02-28T14:23:26;20.70;23.50
69895;DHT22;57172;52.034;5.090;2023-02-28T14:28:56;20.80;22.80
69895;DHT22;57172;52.034;5.090;2023-02-28T14:37:04;20.70;23.60
69895;DHT22;57172;52.034;5.090;2023-02-28T14:39:31;20.60;23.60
69895;DHT22;57172;52.034;5.090;2023-02-28T14:41:59;20.60;23.20
69895;DHT22;57172;52.034;5.090;2023-02-28T14:44:31;20.40;23.00
69895;DHT22;57172;52.034;5.090;2023-02-28T14:47:03;19.90;23.30
69895;DHT22;57172;52.034;5.090;2023-02-28T14:49:41;19.90;23.70
69895;DHT22;57172;52.034;5.090;2023-02-28T14:52:24;20.00;23.70
69895;DHT22;57172;52.034;5.090;2023-02-28T14:55:03;20.00;23.70
69895;DHT22;57172;52.034;5.090;2023-02-28T14:57:33;19.90;23.30
69895;DHT22;57172;52.034;5.090;2023-02-28T15:02:40;19.00;23.80
69895;DHT22;57172;52.034;5.090;2023-02-28T15:07:37;18.60;24.10
69895;DHT22;57172;52.034;5.090;2023-02-28T15:10:19;18.60;24.50
69895;DHT22;57172;52.034;5.090;2023-02-28T15:12:53;18.60;24.70
69895;DHT22;57172;52.034;5.090;2023-02-28T15:20:46;18.20;24.40
69895;DHT22;57172;52.034;5.090;2023-02-28T15:23:15;18.20;24.50
69895;DHT22;57172;52.034;5.090;2023-02-28T15:25:42;18.30;24.50
69895;DHT22;57172;52.034;5.090;2023-02-28T15:28:14;18.50;24.70
69895;DHT22;57172;52.034;5.090;2023-02-28T15:30:55;18.40;24.50
69895;DHT22;57172;52.034;5.090;2023-02-28T15:33:28;18.40;25.10
69895;DHT22;57172;52.034;5.090;2023-02-28T15:36:31;18.60;25.10
69895;DHT22;57172;52.034;5.090;2023-02-28T15:39:00;18.80;24.70
69895;DHT22;57172;52.034;5.090;2023-02-28T15:41:41;18.70;24.50
69895;DHT22;57172;52.034;5.090;2023-02-28T15:44:27;18.50;24.50
69895;DHT22;57172;52.034;5.090;2023-02-28T15:47:03;18.30;24.60
69895;DHT22;57172;52.034;5.090;2023-02-28T15:49:45;18.10;24.90
69895;DHT22;57172;52.034;5.090;2023-02-28T15:52:19;17.80;25.20
69895;DHT22;57172;52.034;5.090;2023-02-28T15:54:48;17.70;25.80
69895;DHT22;57172;52.034;5.090;2023-02-28T15:57:20;17.80;25.70
69895;DHT22;57172;52.034;5.090;2023-02-28T15:59:52;17.90;25.60
69895;DHT22;57172;52.034;5.090;2023-02-28T16:02:33;17.80;25.70
69895;DHT22;57172;52.034;5.090;2023-02-28T16:07:38;17.50;25.70
69895;DHT22;57172;52.034;5.090;2023-02-28T16:10:08;17.40;26.10
69895;DHT22;57172;52.034;5.090;2023-02-28T16:12:37;17.40;25.80
69895;DHT22;57172;52.034;5.090;2023-02-28T16:17:48;16.70;26.10
69895;DHT22;57172;52.034;5.090;2023-02-28T16:20:27;16.30;26.00
69895;DHT22;57172;52.034;5.090;2023-02-28T16:22:54;15.80;26.60
69895;DHT22;57172;52.034;5.090;2023-02-28T16:25:38;15.50;26.80
69895;DHT22;57172;52.034;5.090;2023-02-28T16:28:18;15.10;27.30
69895;DHT22;57172;52.034;5.090;2023-02-28T16:30:45;14.80;27.40
69895;DHT22;57172;52.034;5.090;2023-02-28T16:33:13;14.60;27.70
69895;DHT22;57172;52.034;5.090;2023-02-28T16:35:40;14.50;27.90
69895;DHT22;57172;52.034;5.090;2023-02-28T16:38:07;14.30;28.10
69895;DHT22;57172;52.034;5.090;2023-02-28T16:40:35;14.10;28.20
69895;DHT22;57172;52.034;5.090;2023-02-28T16:43:07;13.90;28.50
69895;DHT22;57172;52.034;5.090;2023-02-28T16:45:35;13.80;28.80
69895;DHT22;57172;52.034;5.090;2023-02-28T16:48:02;13.70;28.90
69895;DHT22;57172;52.034;5.090;2023-02-28T16:50:30;13.60;29.00
69895;DHT22;57172;52.034;5.090;2023-02-28T16:52:59;13.30;29.40
69895;DHT22;57172;52.034;5.090;2023-02-28T16:55:27;13.10;29.80
69895;DHT22;57172;52.034;5.090;2023-02-28T16:57:56;12.80;29.70
69895;DHT22;57172;52.034;5.090;2023-02-28T17:00:25;12.40;29.90
69895;DHT22;57172;52.034;5.090;2023-02-28T17:02:52;12.00;30.00
69895;DHT22;57172;52.034;5.090;2023-02-28T17:05:19;11.60;30.40
69895;DHT22;57172;52.034;5.090;2023-02-28T17:07:47;11.20;30.90
69895;DHT22;57172;52.034;5.090;2023-02-28T17:10:22;10.80;31.30
69895;DHT22;57172;52.034;5.090;2023-02-28T17:12:49;10.50;31.70
69895;DHT22;57172;52.034;5.090;2023-02-28T17:15:18;10.30;31.90
69895;DHT22;57172;52.034;5.090;2023-02-28T17:17:47;10.10;32.20
69895;DHT22;57172;52.034;5.090;2023-02-28T17:20:19;9.90;32.80
69895;DHT22;57172;52.034;5.090;2023-02-28T17:22:52;9.80;33.40
69895;DHT22;57172;52.034;5.090;2023-02-28T17:25:20;9.70;33.20
69895;DHT22;57172;52.034;5.090;2023-02-28T17:27:47;9.50;33.20
69895;DHT22;57172;52.034;5.090;2023-02-28T17:30:23;9.20;33.50
69895;DHT22;57172;52.034;5.090;2023-02-28T17:32:50;9.10;33.80
69895;DHT22;57172;52.034;5.090;2023-02-28T17:35:17;8.90;33.90
69895;DHT22;57172;52.034;5.090;2023-02-28T17:37:43;8.80;34.20
69895;DHT22;57172;52.034;5.090;2023-02-28T17:40:16;8.60;34.40
69895;DHT22;57172;52.034;5.090;2023-02-28T17:42:44;8.50;34.80
69895;DHT22;57172;52.034;5.090;2023-02-28T17:45:12;8.50;35.30
69895;DHT22;57172;52.034;5.090;2023-02-28T17:47:39;8.40;35.40
69895;DHT22;57172;52.034;5.090;2023-02-28T17:50:16;8.30;35.50
69895;DHT22;57172;52.034;5.090;2023-02-28T17:52:44;8.20;35.80
69895;DHT22;57172;52.034;5.090;2023-02-28T17:55:11;8.20;36.10
69895;DHT22;57172;52.034;5.090;2023-02-28T17:57:38;8.10;36.40
69895;DHT22;57172;52.034;5.090;2023-02-28T18:00:06;8.00;36.20
69895;DHT22;57172;52.034;5.090;2023-02-28T18:02:37;7.90;36.50
69895;DHT22;57172;52.034;5.090;2023-02-28T18:05:04;7.80;36.90
69895;DHT22;57172;52.034;5.090;2023-02-28T18:07:31;7.80;37.20
69895;DHT22;57172;52.034;5.090;2023-02-28T18:09:58;7.80;37.40
69895;DHT22;57172;52.034;5.090;2023-02-28T18:12:25;7.70;37.60
69895;DHT22;57172;52.034;5.090;2023-02-28T18:14:51;7.70;37.60
69895;DHT22;57172;52.034;5.090;2023-02-28T18:17:18;7.60;38.00
69895;DHT22;57172;52.034;5.090;2023-02-28T18:19:45;7.60;38.10
69895;DHT22;57172;52.034;5.090;2023-02-28T18:22:12;7.60;38.10
69895;DHT22;57172;52.034;5.090;2023-02-28T18:24:39;7.50;38.40
69895;DHT22;57172;52.034;5.090;2023-02-28T18:27:06;7.40;38.80
69895;DHT22;57172;52.034;5.090;2023-02-28T18:29:33;7.30;39.10
69895;DHT22;57172;52.034;5.090;2023-02-28T18:32:00;7.30;39.30
69895;DHT22;57172;52.034;5.090;2023-02-28T18:34:28;7.20;39.70
69895;DHT22;57172;52.034;5.090;2023-02-28T18:36:56;7.20;39.80
69895;DHT22;57172;52.034;5.090;2023-02-28T18:39:23;7.20;40.10
69895;DHT22;57172;52.034;5.090;2023-02-28T18:41:50;7.20;40.20
69895;DHT22;57172;52.034;5.090;2023-02-28T18:44:17;7.20;40.40
69895;DHT22;57172;52.034;5.090;2023-02-28T18:46:50;7.10;40.50
69895;DHT22;57172;52.034;5.090;2023-02-28T18:49:17;7.00;40.80
69895;DHT22;57172;52.034;5.090;2023-02-28T18:51:44;7.00;40.90
69895;DHT22;57172;52.034;5.090;2023-02-28T18:54:13;6.90;41.20
69895;DHT22;57172;52.034;5.090;2023-02-28T18:56:41;6.80;41.40
69895;DHT22;57172;52.034;5.090;2023-02-28T18:59:08;6.80;41.70
69895;DHT22;57172;52.034;5.090;2023-02-28T19:01:35;6.70;41.90
69895;DHT22;57172;52.034;5.090;2023-02-28T19:04:02;6.70;42.00
69895;DHT22;57172;52.034;5.090;2023-02-28T19:06:31;6.60;42.20
69895;DHT22;57172;52.034;5.090;2023-02-28T19:09:00;6.60;42.50